sensor_id;sensor_type;location;lat;lon;timestamp;pressure;altitude;pressure_sealevel;temperature;humidity
50011;BME280;35899;50.352;19.390;2023-06-10T00:01:21;97500.33;;;16.55;98.20
50011;BME280;35899;50.352;19.390;2023-06-10T00:03:47;97498.29;;;16.54;97.98
50011;BME280;35899;50.352;19.390;2023-06-10T00:06:14;97499.33;;;16.53;97.98
50011;BME280;35899;50.352;19.390;2023-06-10T00:08:44;97500.83;;;16.50;97.81
50011;BME280;35899;50.352;19.390;2023-06-10T00:11:10;97500.98;;;16.47;97.75
50011;BME280;35899;50.352;19.390;2023-06-10T00:13:37;97498.70;;;16.44;97.62
50011;BME280;35899;50.352;19.390;2023-06-10T00:16:03;97502.51;;;16.38;97.38
50011;BME280;35899;50.352;19.390;2023-06-10T00:18:30;97500.07;;;16.33;97.29
50011;BME280;35899;50.352;19.390;2023-06-10T00:20:57;97502.86;;;16.28;96.99
50011;BME280;35899;50.352;19.390;2023-06-10T00:23:26;97501.50;;;16.21;96.58
50011;BME280;35899;50.352;19.390;2023-06-10T00:25:53;97505.96;;;16.16;96.91
50011;BME280;35899;50.352;19.390;2023-06-10T00:28:19;97505.66;;;16.14;97.20
50011;BME280;35899;50.352;19.390;2023-06-10T00:30:46;97511.35;;;16.13;97.46
50011;BME280;35899;50.352;19.390;2023-06-10T00:33:12;97509.02;;;16.10;97.54
50011;BME280;35899;50.352;19.390;2023-06-10T00:35:39;97511.98;;;16.07;97.57
50011;BME280;35899;50.352;19.390;2023-06-10T00:38:06;97514.66;;;16.04;97.59
50011;BME280;35899;50.352;19.390;2023-06-10T00:40:33;97512.26;;;16.02;97.55
50011;BME280;35899;50.352;19.390;2023-06-10T00:43:04;97512.52;;;16.01;97.60
50011;BME280;35899;50.352;19.390;2023-06-10T00:45:31;97515.88;;;16.01;97.53
50011;BME280;35899;50.352;19.390;2023-06-10T00:47:58;97512.28;;;16.00;97.60
50011;BME280;35899;50.352;19.390;2023-06-10T00:50:26;97515.98;;;16.01;97.65
50011;BME280;35899;50.352;19.390;2023-06-10T00:52:53;97514.49;;;16.02;97.58
50011;BME280;35899;50.352;19.390;2023-06-10T00:55:27;97519.31;;;16.05;97.66
50011;BME280;35899;50.352;19.390;2023-06-10T00:57:53;97520.58;;;16.08;97.76
50011;BME280;35899;50.352;19.390;2023-06-10T01:00:20;97520.98;;;16.11;97.87
50011;BME280;35899;50.352;19.390;2023-06-10T01:02:46;97524.48;;;16.13;97.83
50011;BME280;35899;50.352;19.390;2023-06-10T01:05:13;97525.07;;;16.14;97.91
50011;BME280;35899;50.352;19.390;2023-06-10T01:07:45;97517.92;;;16.15;97.96
50011;BME280;35899;50.352;19.390;2023-06-10T01:10:16;97517.86;;;16.16;97.93
50011;BME280;35899;50.352;19.390;2023-06-10T01:12:46;97517.79;;;16.17;98.07
50011;BME280;35899;50.352;19.390;2023-06-10T01:15:16;97520.38;;;16.19;98.14
50011;BME280;35899;50.352;19.390;2023-06-10T01:18:01;97526.27;;;16.21;98.33
50011;BME280;35899;50.352;19.390;2023-06-10T01:20:30;97527.85;;;16.22;98.39
50011;BME280;35899;50.352;19.390;2023-06-10T01:22:58;97529.59;;;16.22;98.57
50011;BME280;35899;50.352;19.390;2023-06-10T01:25:26;97530.36;;;16.23;98.72
50011;BME280;35899;50.352;19.390;2023-06-10T01:27:54;97534.17;;;16.26;98.88
50011;BME280;35899;50.352;19.390;2023-06-10T01:30:27;97533.02;;;16.27;98.96
50011;BME280;35899;50.352;19.390;2023-06-10T01:32:54;97535.35;;;16.26;98.99
50011;BME280;35899;50.352;19.390;2023-06-10T01:35:21;97534.33;;;16.26;99.02
50011;BME280;35899;50.352;19.390;2023-06-10T01:37:49;97535.17;;;16.25;99.03
50011;BME280;35899;50.352;19.390;2023-06-10T01:40:19;97531.57;;;16.24;99.18
50011;BME280;35899;50.352;19.390;2023-06-10T01:42:46;97531.29;;;16.21;99.19
50011;BME280;35899;50.352;19.390;2023-06-10T01:45:13;97534.33;;;16.21;99.23
50011;BME280;35899;50.352;19.390;2023-06-10T01:47:42;97535.80;;;16.22;99.43
50011;BME280;35899;50.352;19.390;2023-06-10T01:50:09;97535.92;;;16.22;99.44
50011;BME280;35899;50.352;19.390;2023-06-10T01:52:36;97535.90;;;16.22;99.49
50011;BME280;35899;50.352;19.390;2023-06-10T01:55:08;97534.71;;;16.20;99.49
50011;BME280;35899;50.352;19.390;2023-06-10T01:57:35;97532.59;;;16.19;99.47
50011;BME280;35899;50.352;19.390;2023-06-10T02:00:02;97531.89;;;16.19;99.66
50011;BME280;35899;50.352;19.390;2023-06-10T02:02:40;97533.09;;;16.17;99.67
50011;BME280;35899;50.352;19.390;2023-06-10T02:05:07;97534.17;;;16.17;99.78
50011;BME280;35899;50.352;19.390;2023-06-10T02:07:34;97535.27;;;16.16;99.83
50011;BME280;35899;50.352;19.390;2023-06-10T02:10:01;97535.71;;;16.17;99.96
50011;BME280;35899;50.352;19.390;2023-06-10T02:12:28;97534.95;;;16.19;99.98
50011;BME280;35899;50.352;19.390;2023-06-10T02:14:57;97534.56;;;16.22;100.00
50011;BME280;35899;50.352;19.390;2023-06-10T02:17:26;97538.30;;;16.23;99.90
50011;BME280;35899;50.352;19.390;2023-06-10T02:19:52;97540.44;;;16.24;99.92
50011;BME280;35899;50.352;19.390;2023-06-10T02:22:21;97539.64;;;16.25;99.85
50011;BME280;35899;50.352;19.390;2023-06-10T02:24:48;97541.63;;;16.26;99.64
50011;BME280;35899;50.352;19.390;2023-06-10T02:27:15;97538.82;;;16.26;99.71
50011;BME280;35899;50.352;19.390;2023-06-10T02:29:42;97539.84;;;16.29;99.72
50011;BME280;35899;50.352;19.390;2023-06-10T02:32:08;97542.08;;;16.30;99.82
50011;BME280;35899;50.352;19.390;2023-06-10T02:34:41;97544.20;;;16.32;99.86
50011;BME280;35899;50.352;19.390;2023-06-10T02:37:09;97543.67;;;16.32;99.74
50011;BME280;35899;50.352;19.390;2023-06-10T02:39:35;97544.75;;;16.33;99.68
50011;BME280;35899;50.352;19.390;2023-06-10T02:42:03;97544.27;;;16.35;99.70
50011;BME280;35899;50.352;19.390;2023-06-10T02:44:30;97546.71;;;16.36;99.68
50011;BME280;35899;50.352;19.390;2023-06-10T02:46:56;97547.13;;;16.37;99.58
50011;BME280;35899;50.352;19.390;2023-06-10T02:49:30;97546.08;;;16.38;99.56
50011;BME280;35899;50.352;19.390;2023-06-10T02:51:58;97548.58;;;16.37;99.43
50011;BME280;35899;50.352;19.390;2023-06-10T02:54:25;97551.21;;;16.37;99.36
50011;BME280;35899;50.352;19.390;2023-06-10T02:57:07;97548.27;;;16.37;99.22
50011;BME280;35899;50.352;19.390;2023-06-10T02:59:33;97547.23;;;16.35;99.09
50011;BME280;35899;50.352;19.390;2023-06-10T03:02:01;97546.77;;;16.32;98.93
50011;BME280;35899;50.352;19.390;2023-06-10T03:04:28;97548.48;;;16.31;98.89
50011;BME280;35899;50.352;19.390;2023-06-10T03:07:01;97550.34;;;16.30;98.86
50011;BME280;35899;50.352;19.390;2023-06-10T03:09:50;97549.96;;;16.28;98.79
50011;BME280;35899;50.352;19.390;2023-06-10T03:12:17;97550.61;;;16.27;98.80
50011;BME280;35899;50.352;19.390;2023-06-10T03:14:46;97558.35;;;16.25;98.59
50011;BME280;35899;50.352;19.390;2023-06-10T03:17:12;97558.05;;;16.22;98.56
50011;BME280;35899;50.352;19.390;2023-06-10T03:19:40;97561.36;;;16.19;98.38
50011;BME280;35899;50.352;19.390;2023-06-10T03:22:08;97560.11;;;16.16;98.39
50011;BME280;35899;50.352;19.390;2023-06-10T03:24:37;97567.02;;;16.13;98.49
50011;BME280;35899;50.352;19.390;2023-06-10T03:27:04;97571.89;;;16.12;98.65
50011;BME280;35899;50.352;19.390;2023-06-10T03:29:31;97569.74;;;16.12;98.75
50011;BME280;35899;50.352;19.390;2023-06-10T03:31:58;97569.72;;;16.14;98.86
50011;BME280;35899;50.352;19.390;2023-06-10T03:34:24;97568.69;;;16.15;98.79
50011;BME280;35899;50.352;19.390;2023-06-10T03:36:51;97563.05;;;16.18;98.81
50011;BME280;35899;50.352;19.390;2023-06-10T03:39:20;97563.60;;;16.23;99.24
50011;BME280;35899;50.352;19.390;2023-06-10T03:41:47;97566.24;;;16.25;99.00
50011;BME280;35899;50.352;19.390;2023-06-10T03:44:13;97569.18;;;16.27;99.14
50011;BME280;35899;50.352;19.390;2023-06-10T03:46:40;97571.58;;;16.27;99.27
50011;BME280;35899;50.352;19.390;2023-06-10T03:49:06;97573.94;;;16.26;99.37
50011;BME280;35899;50.352;19.390;2023-06-10T03:51:33;97580.67;;;16.25;99.52
50011;BME280;35899;50.352;19.390;2023-06-10T03:54:00;97584.96;;;16.24;99.69
50011;BME280;35899;50.352;19.390;2023-06-10T03:56:27;97586.91;;;16.26;99.77
50011;BME280;35899;50.352;19.390;2023-06-10T03:58:54;97587.23;;;16.26;99.77
50011;BME280;35899;50.352;19.390;2023-06-10T04:01:21;97585.58;;;16.27;99.83
50011;BME280;35899;50.352;19.390;2023-06-10T04:03:48;97587.73;;;16.28;99.86
50011;BME280;35899;50.352;19.390;2023-06-10T04:06:15;97586.94;;;16.29;100.00
50011;BME280;35899;50.352;19.390;2023-06-10T04:08:41;97588.52;;;16.31;100.00
50011;BME280;35899;50.352;19.390;2023-06-10T04:11:08;97587.89;;;16.30;100.00
50011;BME280;35899;50.352;19.390;2023-06-10T04:13:35;97587.48;;;16.29;100.00
50011;BME280;35899;50.352;19.390;2023-06-10T04:16:02;97586.41;;;16.31;100.00
50011;BME280;35899;50.352;19.390;2023-06-10T04:18:28;97588.70;;;16.34;100.00
50011;BME280;35899;50.352;19.390;2023-06-10T04:20:57;97587.72;;;16.38;100.00
50011;BME280;35899;50.352;19.390;2023-06-10T04:23:24;97590.23;;;16.43;100.00
50011;BME280;35899;50.352;19.390;2023-06-10T04:25:51;97587.73;;;16.47;100.00
50011;BME280;35899;50.352;19.390;2023-06-10T04:28:18;97590.17;;;16.54;100.00
50011;BME280;35899;50.352;19.390;2023-06-10T04:30:46;97587.61;;;16.61;100.00
50011;BME280;35899;50.352;19.390;2023-06-10T04:33:12;97588.64;;;16.66;100.00
50011;BME280;35899;50.352;19.390;2023-06-10T04:35:39;97594.31;;;16.70;100.00
50011;BME280;35899;50.352;19.390;2023-06-10T04:38:07;97595.27;;;16.73;100.00
50011;BME280;35899;50.352;19.390;2023-06-10T04:40:33;97597.40;;;16.76;99.97
50011;BME280;35899;50.352;19.390;2023-06-10T04:43:00;97597.92;;;16.78;99.84
50011;BME280;35899;50.352;19.390;2023-06-10T04:45:27;97599.45;;;16.80;99.86
50011;BME280;35899;50.352;19.390;2023-06-10T04:47:55;97603.36;;;16.85;99.98
50011;BME280;35899;50.352;19.390;2023-06-10T04:50:21;97598.48;;;16.89;99.95
50011;BME280;35899;50.352;19.390;2023-06-10T04:52:51;97596.91;;;16.95;99.96
50011;BME280;35899;50.352;19.390;2023-06-10T04:55:18;97600.52;;;17.08;100.00
50011;BME280;35899;50.352;19.390;2023-06-10T04:57:44;97599.20;;;17.24;99.85
50011;BME280;35899;50.352;19.390;2023-06-10T05:00:11;97602.55;;;17.41;99.76
50011;BME280;35899;50.352;19.390;2023-06-10T05:02:38;97605.88;;;17.60;99.36
50011;BME280;35899;50.352;19.390;2023-06-10T05:05:05;97603.93;;;17.77;99.24
50011;BME280;35899;50.352;19.390;2023-06-10T05:07:31;97604.35;;;17.93;99.10
50011;BME280;35899;50.352;19.390;2023-06-10T05:09:58;97605.21;;;18.07;98.73
50011;BME280;35899;50.352;19.390;2023-06-10T05:12:24;97604.83;;;18.17;98.31
50011;BME280;35899;50.352;19.390;2023-06-10T05:14:54;97606.40;;;18.22;97.51
50011;BME280;35899;50.352;19.390;2023-06-10T05:17:20;97608.77;;;18.27;97.64
50011;BME280;35899;50.352;19.390;2023-06-10T05:19:47;97608.50;;;18.35;97.45
50011;BME280;35899;50.352;19.390;2023-06-10T05:22:13;97610.66;;;18.41;97.03
50011;BME280;35899;50.352;19.390;2023-06-10T05:24:40;97612.02;;;18.46;96.79
50011;BME280;35899;50.352;19.390;2023-06-10T05:27:07;97617.92;;;18.55;96.50
50011;BME280;35899;50.352;19.390;2023-06-10T05:29:33;97616.08;;;18.61;96.01
50011;BME280;35899;50.352;19.390;2023-06-10T05:32:00;97620.89;;;18.66;95.89
50011;BME280;35899;50.352;19.390;2023-06-10T05:34:26;97615.07;;;18.73;95.58
50011;BME280;35899;50.352;19.390;2023-06-10T05:36:53;97614.99;;;18.75;94.87
50011;BME280;35899;50.352;19.390;2023-06-10T05:39:19;97619.31;;;18.80;94.86
50011;BME280;35899;50.352;19.390;2023-06-10T05:41:46;97621.55;;;18.85;94.54
50011;BME280;35899;50.352;19.390;2023-06-10T05:44:12;97621.48;;;18.87;94.04
50011;BME280;35899;50.352;19.390;2023-06-10T05:46:40;97626.84;;;18.88;93.72
50011;BME280;35899;50.352;19.390;2023-06-10T05:49:09;97626.39;;;18.87;93.44
50011;BME280;35899;50.352;19.390;2023-06-10T05:51:36;97631.70;;;18.78;92.59
50011;BME280;35899;50.352;19.390;2023-06-10T05:54:04;97634.17;;;18.63;92.32
50011;BME280;35899;50.352;19.390;2023-06-10T05:56:31;97635.17;;;18.46;92.44
50011;BME280;35899;50.352;19.390;2023-06-10T05:59:00;97640.92;;;18.29;92.86
50011;BME280;35899;50.352;19.390;2023-06-10T06:01:26;97642.94;;;18.17;93.27
50011;BME280;35899;50.352;19.390;2023-06-10T06:03:53;97645.06;;;18.04;93.77
50011;BME280;35899;50.352;19.390;2023-06-10T06:06:19;97646.13;;;17.97;94.45
50011;BME280;35899;50.352;19.390;2023-06-10T06:08:46;97649.77;;;17.89;94.47
50011;BME280;35899;50.352;19.390;2023-06-10T06:11:12;97651.95;;;17.81;94.38
50011;BME280;35899;50.352;19.390;2023-06-10T06:13:39;97652.68;;;17.76;94.80
50011;BME280;35899;50.352;19.390;2023-06-10T06:16:05;97657.73;;;17.74;95.26
50011;BME280;35899;50.352;19.390;2023-06-10T06:18:32;97659.01;;;17.75;95.27
50011;BME280;35899;50.352;19.390;2023-06-10T06:20:59;97659.41;;;17.77;95.19
50011;BME280;35899;50.352;19.390;2023-06-10T06:23:25;97655.80;;;17.79;95.28
50011;BME280;35899;50.352;19.390;2023-06-10T06:25:52;97658.36;;;17.82;95.36
50011;BME280;35899;50.352;19.390;2023-06-10T06:28:18;97655.83;;;17.86;95.39
50011;BME280;35899;50.352;19.390;2023-06-10T06:30:46;97660.90;;;17.93;95.51
50011;BME280;35899;50.352;19.390;2023-06-10T06:33:12;97659.56;;;18.03;95.38
50011;BME280;35899;50.352;19.390;2023-06-10T06:35:39;97662.63;;;18.08;95.18
50011;BME280;35899;50.352;19.390;2023-06-10T06:38:08;97668.91;;;18.15;95.24
50011;BME280;35899;50.352;19.390;2023-06-10T06:40:35;97668.66;;;18.19;95.36
50011;BME280;35899;50.352;19.390;2023-06-10T06:43:01;97673.42;;;18.22;95.27
50011;BME280;35899;50.352;19.390;2023-06-10T06:45:46;97676.05;;;18.25;95.15
50011;BME280;35899;50.352;19.390;2023-06-10T06:48:13;97679.93;;;18.28;95.15
50011;BME280;35899;50.352;19.390;2023-06-10T06:50:40;97684.05;;;18.36;95.24
50011;BME280;35899;50.352;19.390;2023-06-10T06:53:06;97685.59;;;18.36;94.77
50011;BME280;35899;50.352;19.390;2023-06-10T06:55:33;97686.96;;;18.38;94.70
50011;BME280;35899;50.352;19.390;2023-06-10T06:58:00;97688.02;;;18.40;94.85
50011;BME280;35899;50.352;19.390;2023-06-10T07:00:26;97693.57;;;18.42;95.02
50011;BME280;35899;50.352;19.390;2023-06-10T07:02:53;97692.95;;;18.43;94.96
50011;BME280;35899;50.352;19.390;2023-06-10T07:05:23;97690.81;;;18.42;94.58
50011;BME280;35899;50.352;19.390;2023-06-10T07:07:50;97692.95;;;18.36;94.46
50011;BME280;35899;50.352;19.390;2023-06-10T07:10:16;97694.73;;;18.37;94.73
50011;BME280;35899;50.352;19.390;2023-06-10T07:12:50;97699.08;;;18.43;94.98
50011;BME280;35899;50.352;19.390;2023-06-10T07:15:17;97699.09;;;18.52;94.94
50011;BME280;35899;50.352;19.390;2023-06-10T07:17:46;97701.60;;;18.65;94.88
50011;BME280;35899;50.352;19.390;2023-06-10T07:20:13;97700.06;;;18.78;94.28
50011;BME280;35899;50.352;19.390;2023-06-10T07:22:43;97703.12;;;18.95;94.20
50011;BME280;35899;50.352;19.390;2023-06-10T07:25:09;97707.44;;;19.14;93.80
50011;BME280;35899;50.352;19.390;2023-06-10T07:27:37;97708.55;;;19.28;93.23
50011;BME280;35899;50.352;19.390;2023-06-10T07:30:04;97710.19;;;19.37;92.63
50011;BME280;35899;50.352;19.390;2023-06-10T07:32:31;97710.19;;;19.37;91.80
50011;BME280;35899;50.352;19.390;2023-06-10T07:34:58;97702.39;;;19.33;91.32
50011;BME280;35899;50.352;19.390;2023-06-10T07:37:24;97702.33;;;19.32;90.97
50011;BME280;35899;50.352;19.390;2023-06-10T07:39:51;97701.64;;;19.32;91.11
50011;BME280;35899;50.352;19.390;2023-06-10T07:42:18;97699.00;;;19.35;91.24
50011;BME280;35899;50.352;19.390;2023-06-10T07:44:44;97695.67;;;19.29;90.80
50011;BME280;35899;50.352;19.390;2023-06-10T07:47:11;97690.48;;;19.23;90.87
50011;BME280;35899;50.352;19.390;2023-06-10T07:49:37;97694.92;;;19.18;91.18
50011;BME280;35899;50.352;19.390;2023-06-10T07:52:07;97700.52;;;19.18;91.63
50011;BME280;35899;50.352;19.390;2023-06-10T07:54:34;97704.96;;;19.22;91.81
50011;BME280;35899;50.352;19.390;2023-06-10T07:57:05;97705.70;;;19.30;92.06
50011;BME280;35899;50.352;19.390;2023-06-10T07:59:32;97709.63;;;19.47;92.26
50011;BME280;35899;50.352;19.390;2023-06-10T08:01:59;97708.99;;;19.86;92.85
50011;BME280;35899;50.352;19.390;2023-06-10T08:04:26;97710.13;;;20.37;92.75
50011;BME280;35899;50.352;19.390;2023-06-10T08:06:53;97707.73;;;20.85;91.85
50011;BME280;35899;50.352;19.390;2023-06-10T08:09:19;97707.84;;;21.21;90.10
50011;BME280;35899;50.352;19.390;2023-06-10T08:11:46;97712.46;;;21.47;88.79
50011;BME280;35899;50.352;19.390;2023-06-10T08:14:13;97713.53;;;21.76;88.72
50011;BME280;35899;50.352;19.390;2023-06-10T08:16:40;97709.02;;;21.97;87.25
50011;BME280;35899;50.352;19.390;2023-06-10T08:19:06;97709.24;;;22.13;86.12
50011;BME280;35899;50.352;19.390;2023-06-10T08:21:33;97711.02;;;22.21;85.55
50011;BME280;35899;50.352;19.390;2023-06-10T08:23:59;97709.05;;;22.38;85.51
50011;BME280;35899;50.352;19.390;2023-06-10T08:26:26;97714.61;;;22.54;84.33
50011;BME280;35899;50.352;19.390;2023-06-10T08:28:53;97719.17;;;22.72;84.18
50011;BME280;35899;50.352;19.390;2023-06-10T08:31:19;97718.12;;;22.93;83.14
50011;BME280;35899;50.352;19.390;2023-06-10T08:33:46;97716.30;;;23.15;82.82
50011;BME280;35899;50.352;19.390;2023-06-10T08:36:13;97722.89;;;23.41;82.11
50011;BME280;35899;50.352;19.390;2023-06-10T08:38:39;97734.57;;;23.62;81.28
50011;BME280;35899;50.352;19.390;2023-06-10T08:41:06;97733.80;;;23.82;80.78
50011;BME280;35899;50.352;19.390;2023-06-10T08:43:44;97730.84;;;24.05;79.46
50011;BME280;35899;50.352;19.390;2023-06-10T08:46:12;97731.03;;;24.12;78.11
50011;BME280;35899;50.352;19.390;2023-06-10T08:48:43;97729.64;;;24.27;78.51
50011;BME280;35899;50.352;19.390;2023-06-10T08:51:10;97732.13;;;24.51;78.39
50011;BME280;35899;50.352;19.390;2023-06-10T08:53:37;97735.20;;;24.56;76.44
50011;BME280;35899;50.352;19.390;2023-06-10T08:56:04;97735.65;;;24.41;75.49
50011;BME280;35899;50.352;19.390;2023-06-10T08:58:32;97735.19;;;24.41;76.04
50011;BME280;35899;50.352;19.390;2023-06-10T09:00:58;97734.71;;;24.39;75.52
50011;BME280;35899;50.352;19.390;2023-06-10T09:03:25;97736.64;;;24.33;75.30
50011;BME280;35899;50.352;19.390;2023-06-10T09:05:52;97738.01;;;24.22;74.83
50011;BME280;35899;50.352;19.390;2023-06-10T09:08:20;97737.25;;;24.14;74.56
50011;BME280;35899;50.352;19.390;2023-06-10T09:10:47;97739.73;;;24.12;74.36
50011;BME280;35899;50.352;19.390;2023-06-10T09:13:16;97739.05;;;24.15;74.92
50011;BME280;35899;50.352;19.390;2023-06-10T09:15:43;97741.60;;;24.26;74.33
50011;BME280;35899;50.352;19.390;2023-06-10T09:18:10;97736.80;;;24.31;74.00
50011;BME280;35899;50.352;19.390;2023-06-10T09:20:38;97739.02;;;24.51;74.02
50011;BME280;35899;50.352;19.390;2023-06-10T09:23:05;97741.15;;;24.70;73.50
50011;BME280;35899;50.352;19.390;2023-06-10T09:25:35;97740.46;;;24.87;72.91
50011;BME280;35899;50.352;19.390;2023-06-10T09:28:12;97740.23;;;25.06;72.25
50011;BME280;35899;50.352;19.390;2023-06-10T09:30:39;97742.07;;;25.20;71.45
50011;BME280;35899;50.352;19.390;2023-06-10T09:33:12;97736.63;;;25.37;71.80
50011;BME280;35899;50.352;19.390;2023-06-10T09:35:44;97741.02;;;25.52;71.24
50011;BME280;35899;50.352;19.390;2023-06-10T09:38:12;97740.45;;;25.46;69.96
50011;BME280;35899;50.352;19.390;2023-06-10T09:40:49;97748.70;;;25.28;69.08
50011;BME280;35899;50.352;19.390;2023-06-10T09:43:16;97750.11;;;25.13;67.62
50011;BME280;35899;50.352;19.390;2023-06-10T09:45:42;97752.84;;;24.89;67.40
50011;BME280;35899;50.352;19.390;2023-06-10T09:48:09;97755.67;;;24.70;67.42
50011;BME280;35899;50.352;19.390;2023-06-10T09:50:43;97752.88;;;24.48;67.25
50011;BME280;35899;50.352;19.390;2023-06-10T09:53:10;97754.64;;;24.22;66.43
50011;BME280;35899;50.352;19.390;2023-06-10T09:55:41;97760.84;;;24.00;66.68
50011;BME280;35899;50.352;19.390;2023-06-10T09:58:07;97757.39;;;23.90;67.39
50011;BME280;35899;50.352;19.390;2023-06-10T10:00:34;97757.97;;;23.95;68.08
50011;BME280;35899;50.352;19.390;2023-06-10T10:03:03;97754.67;;;24.16;68.52
50011;BME280;35899;50.352;19.390;2023-06-10T10:05:29;97754.39;;;24.33;68.03
50011;BME280;35899;50.352;19.390;2023-06-10T10:07:56;97757.48;;;24.39;68.11
50011;BME280;35899;50.352;19.390;2023-06-10T10:10:23;97760.52;;;24.38;66.80
50011;BME280;35899;50.352;19.390;2023-06-10T10:12:54;97763.02;;;24.25;66.31
50011;BME280;35899;50.352;19.390;2023-06-10T10:15:20;97765.32;;;24.19;66.01
50011;BME280;35899;50.352;19.390;2023-06-10T10:18:01;97762.67;;;24.18;65.95
50011;BME280;35899;50.352;19.390;2023-06-10T10:20:33;97762.27;;;24.11;65.49
50011;BME280;35899;50.352;19.390;2023-06-10T10:23:02;97764.06;;;23.99;65.49
50011;BME280;35899;50.352;19.390;2023-06-10T10:25:34;97758.26;;;23.97;65.77
50011;BME280;35899;50.352;19.390;2023-06-10T10:30:37;97757.63;;;24.23;65.72
50011;BME280;35899;50.352;19.390;2023-06-10T10:33:19;97760.66;;;24.40;65.65
50011;BME280;35899;50.352;19.390;2023-06-10T10:35:47;97760.01;;;24.66;65.77
50011;BME280;35899;50.352;19.390;2023-06-10T10:38:54;97755.45;;;24.94;65.14
50011;BME280;35899;50.352;19.390;2023-06-10T10:41:26;97759.73;;;25.14;64.56
50011;BME280;35899;50.352;19.390;2023-06-10T10:43:52;97752.94;;;25.30;64.26
50011;BME280;35899;50.352;19.390;2023-06-10T10:46:20;97752.95;;;25.49;64.27
50011;BME280;35899;50.352;19.390;2023-06-10T10:48:51;97756.89;;;25.74;63.78
50011;BME280;35899;50.352;19.390;2023-06-10T10:51:24;97752.80;;;25.99;63.48
50011;BME280;35899;50.352;19.390;2023-06-10T10:54:10;97752.40;;;26.31;63.39
50011;BME280;35899;50.352;19.390;2023-06-10T10:56:37;97751.52;;;26.52;62.16
50011;BME280;35899;50.352;19.390;2023-06-10T10:59:04;97745.29;;;26.95;62.29
50011;BME280;35899;50.352;19.390;2023-06-10T11:01:43;97741.86;;;27.56;61.04
50011;BME280;35899;50.352;19.390;2023-06-10T11:04:10;97736.51;;;28.15;59.55
50011;BME280;35899;50.352;19.390;2023-06-10T11:06:38;97734.53;;;28.57;57.81
50011;BME280;35899;50.352;19.390;2023-06-10T11:09:29;97737.25;;;29.18;56.92
50011;BME280;35899;50.352;19.390;2023-06-10T11:11:56;97731.38;;;29.73;54.59
50011;BME280;35899;50.352;19.390;2023-06-10T11:14:26;97736.58;;;30.02;53.18
50011;BME280;35899;50.352;19.390;2023-06-10T11:16:53;97727.36;;;30.24;51.35
50011;BME280;35899;50.352;19.390;2023-06-10T11:19:33;97723.14;;;31.30;51.58
50011;BME280;35899;50.352;19.390;2023-06-10T11:22:01;97722.63;;;32.26;50.74
50011;BME280;35899;50.352;19.390;2023-06-10T11:24:28;97722.36;;;33.03;48.01
50011;BME280;35899;50.352;19.390;2023-06-10T11:27:14;97717.21;;;33.63;47.20
50011;BME280;35899;50.352;19.390;2023-06-10T11:30:26;97717.50;;;33.55;45.92
50011;BME280;35899;50.352;19.390;2023-06-10T11:32:32;97718.35;;;32.66;44.58
50011;BME280;35899;50.352;19.390;2023-06-10T11:35:02;97720.20;;;32.51;45.03
50011;BME280;35899;50.352;19.390;2023-06-10T11:37:30;97722.44;;;32.70;45.45
50011;BME280;35899;50.352;19.390;2023-06-10T11:39:57;97719.70;;;32.85;45.14
50011;BME280;35899;50.352;19.390;2023-06-10T11:42:24;97718.33;;;32.70;44.09
50011;BME280;35899;50.352;19.390;2023-06-10T11:44:52;97713.64;;;32.39;44.15
50011;BME280;35899;50.352;19.390;2023-06-10T11:47:18;97712.39;;;32.77;44.53
50011;BME280;35899;50.352;19.390;2023-06-10T11:49:46;97711.19;;;33.34;44.14
50011;BME280;35899;50.352;19.390;2023-06-10T11:52:28;97712.96;;;34.02;42.70
50011;BME280;35899;50.352;19.390;2023-06-10T11:54:55;97713.23;;;34.72;41.64
50011;BME280;35899;50.352;19.390;2023-06-10T11:57:24;97711.92;;;34.93;41.23
50011;BME280;35899;50.352;19.390;2023-06-10T11:59:51;97710.58;;;34.33;40.70
50011;BME280;35899;50.352;19.390;2023-06-10T12:02:17;97706.30;;;33.91;41.10
50011;BME280;35899;50.352;19.390;2023-06-10T12:04:44;97706.23;;;33.32;41.16
50011;BME280;35899;50.352;19.390;2023-06-10T12:07:18;97708.43;;;32.86;41.63
50011;BME280;35899;50.352;19.390;2023-06-10T12:09:45;97710.13;;;32.91;41.96
50011;BME280;35899;50.352;19.390;2023-06-10T12:12:11;97706.64;;;33.67;41.10
50011;BME280;35899;50.352;19.390;2023-06-10T12:17:17;97704.18;;;35.41;38.00
50011;BME280;35899;50.352;19.390;2023-06-10T12:19:50;97710.16;;;36.17;37.44
50011;BME280;35899;50.352;19.390;2023-06-10T12:22:18;97718.48;;;37.12;36.91
50011;BME280;35899;50.352;19.390;2023-06-10T12:25:06;97716.27;;;37.97;35.28
50011;BME280;35899;50.352;19.390;2023-06-10T12:30:23;97699.40;;;38.99;33.21
50011;BME280;35899;50.352;19.390;2023-06-10T12:32:53;97705.75;;;39.46;33.11
50011;BME280;35899;50.352;19.390;2023-06-10T12:35:21;97712.43;;;39.90;32.99
50011;BME280;35899;50.352;19.390;2023-06-10T12:37:59;97707.77;;;39.77;32.07
50011;BME280;35899;50.352;19.390;2023-06-10T12:40:27;97704.88;;;39.52;32.16
50011;BME280;35899;50.352;19.390;2023-06-10T12:42:54;97703.69;;;38.96;32.34
50011;BME280;35899;50.352;19.390;2023-06-10T12:45:36;97707.38;;;37.42;32.72
50011;BME280;35899;50.352;19.390;2023-06-10T12:48:07;97703.98;;;35.69;34.23
50011;BME280;35899;50.352;19.390;2023-06-10T12:50:37;97704.48;;;35.52;34.88
50011;BME280;35899;50.352;19.390;2023-06-10T12:53:07;97701.67;;;34.82;34.90
50011;BME280;35899;50.352;19.390;2023-06-10T12:59:22;97701.83;;;34.19;35.57
50011;BME280;35899;50.352;19.390;2023-06-10T13:01:52;97704.45;;;32.63;36.77
50011;BME280;35899;50.352;19.390;2023-06-10T13:04:24;97700.73;;;32.77;37.72
50011;BME280;35899;50.352;19.390;2023-06-10T13:07:03;97698.39;;;33.89;37.30
50011;BME280;35899;50.352;19.390;2023-06-10T13:09:30;97697.33;;;34.87;36.40